| time (UTC) | temp F | wind direction | speed knots | gust knots | rain 1hr in | rain 24hr in | rain mn in | humidity % | barometer mb |
| 20260508060017 | 43 | 68 | 0.9 | 3.5 | 0.00 | 0.00 | 0.00 | 63 | 1013.1 |
| 20260508053038 | 45 | 68 | 0.9 | 3.5 | 0.00 | 0.00 | 0.00 | 57 | 1013.1 |
| 20260508050017 | 46 | 0.0 | 3.5 | 0.00 | 0.00 | 0.00 | 54 | 1013.2 | |
| 20260508043017 | 47 | 45 | 1.7 | 5.2 | 0.00 | 0.00 | 0.00 | 52 | 1013.3 |
| 20260508040017 | 48 | 45 | 0.9 | 4.3 | 0.00 | 0.00 | 0.00 | 51 | 1013.0 |
| 20260508033017 | 49 | 0 | 0.9 | 4.3 | 0.00 | 0.00 | 0.00 | 48 | 1012.6 |
| 20260508030017 | 51 | 0 | 0.9 | 6.1 | 0.00 | 0.00 | 0.00 | 48 | 1012.4 |
| 20260508023017 | 52 | 0.0 | 1.7 | 0.00 | 0.00 | 0.00 | 45 | 1012.0 | |
| 20260508020017 | 54 | 0.0 | 1.7 | 0.00 | 0.00 | 0.00 | 43 | 1011.4 | |
| 20260508013017 | 55 | 315 | 1.7 | 4.3 | 0.00 | 0.00 | 0.00 | 41 | 1011.0 |
| 20260508010137 | 56 | 315 | 1.7 | 4.3 | 0.00 | 0.00 | 0.00 | 40 | 1010.7 |
| 20260508003016 | 57 | 315 | 4.3 | 8.7 | 0.00 | 0.00 | 0.00 | 38 | 1010.5 |
| 20260508000017 | 59 | 315 | 5.2 | 8.7 | 0.00 | 0.00 | 0.00 | 37 | 1010.3 |
| 20260507233036 | 60 | 315 | 4.3 | 9.6 | 0.00 | 0.00 | 0.00 | 36 | 1010.2 |
| 20260507230016 | 59 | 315 | 4.3 | 10.4 | 0.00 | 0.00 | 0.00 | 39 | 1010.3 |
| 20260507223016 | 59 | 315 | 3.5 | 10.4 | 0.00 | 0.00 | 0.00 | 39 | 1010.3 |
| 20260507220016 | 60 | 315 | 2.6 | 6.1 | 0.00 | 0.00 | 0.00 | 43 | 1010.2 |
| 20260507213016 | 58 | 315 | 2.6 | 7.8 | 0.00 | 0.00 | 0.00 | 47 | 1010.3 |
| 20260507210016 | 58 | 293 | 3.5 | 9.6 | 0.00 | 0.00 | 0.00 | 47 | 1010.2 |
| 20260507203016 | 56 | 315 | 3.5 | 9.6 | 0.00 | 0.00 | 0.00 | 49 | 1010.5 |
| 20260507200016 | 55 | 315 | 4.3 | 11.3 | 0.00 | 0.00 | 0.00 | 55 | 1010.7 |
| 20260507193015 | 55 | 315 | 4.3 | 12.2 | 0.00 | 0.00 | 0.00 | 49 | 1011.2 |
| 20260507190017 | 55 | 315 | 3.5 | 13.9 | 0.00 | 0.00 | 0.00 | 50 | 1011.5 |
| 20260507183017 | 54 | 315 | 3.5 | 9.6 | 0.00 | 0.00 | 0.00 | 51 | 1011.8 |
| 20260507180038 | 54 | 293 | 2.6 | 7.8 | 0.00 | 0.00 | 0.00 | 47 | 1011.7 |
| 20260507173017 | 55 | 225 | 2.6 | 8.7 | 0.00 | 0.00 | 0.00 | 46 | 1012.2 |
| 20260507170017 | 54 | 180 | 3.5 | 12.2 | 0.00 | 0.00 | 0.00 | 47 | 1012.9 |
| 20260507163037 | 52 | 158 | 3.5 | 10.4 | 0.00 | 0.00 | 0.00 | 50 | 1013.5 |
| 20260507160017 | 51 | 225 | 3.5 | 8.7 | 0.00 | 0.00 | 0.00 | 50 | 1013.8 |
| 20260507153017 | 50 | 113 | 2.6 | 8.7 | 0.00 | 0.00 | 0.00 | 52 | 1013.9 |
| 20260507150017 | 49 | 203 | 2.6 | 7.0 | 0.00 | 0.00 | 0.00 | 53 | 1014.4 |
| 20260507143017 | 46 | 180 | 3.5 | 8.7 | 0.00 | 0.00 | 0.00 | 59 | 1014.9 |
| 20260507140017 | 44 | 225 | 3.5 | 7.8 | 0.00 | 0.00 | 0.00 | 65 | 1015.3 |
| 20260507133037 | 41 | 180 | 1.7 | 7.0 | 0.00 | 0.00 | 0.00 | 66 | 1015.5 |
| 20260507130057 | 39 | 203 | 0.9 | 2.6 | 0.00 | 0.00 | 0.00 | 70 | 1015.6 |
| 20260507123016 | 38 | 225 | 0.9 | 4.3 | 0.00 | 0.00 | 0.00 | 73 | 1015.8 |
| 20260507120036 | 36 | 225 | 2.6 | 4.3 | 0.00 | 0.00 | 0.00 | 75 | 1015.7 |
| 20260507113036 | 36 | 225 | 1.7 | 3.5 | 0.00 | 0.00 | 0.00 | 75 | 1015.4 |
| 20260507110016 | 35 | 225 | 2.6 | 3.5 | 0.00 | 0.00 | 0.00 | 76 | 1015.2 |
| 20260507103036 | 35 | 225 | 1.7 | 3.5 | 0.00 | 0.00 | 0.00 | 80 | 1015.3 |
| 20260507100016 | 34 | 225 | 1.7 | 4.3 | 0.00 | 0.00 | 0.00 | 81 | 1015.2 |
| 20260507093016 | 34 | 225 | 0.9 | 2.6 | 0.00 | 0.00 | 0.00 | 79 | 1015.4 |
| 20260507090016 | 34 | 225 | 0.9 | 2.6 | 0.00 | 0.00 | 0.00 | 77 | 1015.3 |
| 20260507083036 | 35 | 0.0 | 1.7 | 0.00 | 0.00 | 0.00 | 75 | 1015.4 | |
| 20260507080016 | 36 | 0.0 | 0.0 | 0.00 | 0.00 | 0.00 | 72 | 1015.5 | |
| 20260507073015 | 36 | 203 | 0.9 | 2.6 | 0.00 | 0.00 | 0.00 | 70 | 1015.6 |
| 20260507070016 | 37 | 0.0 | 0.0 | 0.00 | 0.00 | 0.00 | 66 | 1015.9 | |
| 20260507063017 | 37 | 0.0 | 0.0 | 0.00 | 0.00 | 0.00 | 66 | 1016.1 |